Airfield :
LOGIN :

Register | Disclaimer

   EN    FR    IT 

 










Legend :    VFR   Marginal VFR   IFR   Intensive IFR   Very Intensive IFR
Visi :
Ceiling :
>= 8 km
>= 3000ft
5 to 8 km
1000 to 3000 ft
1500m to 5 km
500 to 1000 ft
800 to 1500m
200 to 500 ft
< 800m
< 200 ft
Symbols :   Thunderstorms  Fog  Heavy snow  Heavy precipitations  Wind > 20 kt
SIGMETs :     Misc.  Thunderstorms  Icing  Turbulence  Mountain Waves  Volcanic Ashes







- Airport Elevation : 353 ft
- IATA code : LIN


LIML - Milano Linate

CURRENT METAR :
  • 300020Z 00000KT CAVOK 10/07 Q1024 NOSIG

EXPIRED METARs :
  • 292350Z VRB01KT CAVOK 11/06 Q1024 NOSIG
  • 292320Z VRB01KT CAVOK 10/07 Q1024 NOSIG
  • 292250Z 02001KT CAVOK 12/07 Q1024 NOSIG
  • 292220Z 00000KT CAVOK 12/06 Q1023 NOSIG
  • 292150Z VRB01KT CAVOK 13/06 Q1023 NOSIG

TAF TAF LIML
Valid from the 30 at 00:00 until the 31 at 00:00 UTC


292300Z 3000/3024 VRB05KT CAVOK
PROB40
TEMPO 3003/3006 4000 BR
No reported NOTAMs for that airfield.



MET'MAP, your aeronautical weather chart ! - Copyright ORBIFLY December 2007 - Disclaimer

ORBIFLY MET'MAP TEAM :

Programming & Development : Alexandra Zaïnal
Concept & Development : Baudouin d'Aumeries
Co-Development & Prog : Marc-Olivier Méhu
Technical & hardware support : Manuel Goepfert

Contact : metmap@orbifly.com




SOURCES & CREDITS :

   NOAA